122-й км

Карта отелей и гостиниц, располагающихся рядом с аэропортом 122-й км :

122-й км Ханты-Мансийский автономный округ - Югра 62° 56' 11.6412" N, 62° 1' 25.32" E
122-й км Ханты-Мансийский автономный округ - Югра 62° 56' 11.6412" N, 62° 1' 25.32" E
Код аэродрома ИКАО
HB39
Код аэродрома RU
ХБ39
Координаты
N62.93657° E062.02370°
Превышение над уровнем моря
60
Основная полоса
34/16
Курс магнитный
340,4/160,4
Длина основной ВПП
24
Ширина основной ВПП
24
Покрытие основной ВПП
Твёрдое
Освещение ВПП
Нет
Тип: 
Вертодром
Класс аэродрома: 
Принадлежность: 
ГА
Статус: 
Действующий
Сайт: 
E-mail аэродрома: 
Страна: 
Россия
Регион: 
Ханты-Мансийский автономный округ - Югра
Город: 
Дополнительная информация: 
Оператор: нет данных.

Найти трансфер

С помощью этой формы Вы можете найти трансфер из аэропорта 122-й км в город, аэропорт или вокзал:

Карта места

Javascript is required to view this map.

Погода в аэропортах:

Авиационная погода в Лаппеэнранта

Регион: 
Погода METAR: 
EFLP 060720Z 15005KT 120V180 9000 -SN FEW017 M14/M16 Q1023
Время наблюдения
2021-12-06T07:20:00Z
Температура C
-14.0
Точка росы
-16.0
Направление ветра
150
Скорость ветра (узлы)
5
Метео видимость
5.59
Явления погоды
-SN
Условия полета
VFR

Авиационная погода в Кривом Роге

Регион: 
Погода METAR: 
UKDR 060700Z 14006MPS 8000 -RA OVC007 04/02 Q1014 NOSIG
Время наблюдения
2021-12-06T07:00:00Z
Температура C
4.0
Точка росы
2.0
Направление ветра
140
Скорость ветра (узлы)
12
Метео видимость
4.97
Явления погоды
-RA
Условия полета
IFR
Аэропорт подробнее: 

Авиационная погода в Витебске

Регион: 
Погода METAR: 
UMII 060700Z 09003MPS 4900 BR BKN006 BKN012CB M04/M05 Q1013 TEMPO 2000 SHSN BKN005 RMK QBB190
Время наблюдения
2021-12-06T07:00:00Z
Температура C
-4.0
Точка росы
-5.0
Направление ветра
90
Скорость ветра (узлы)
6
Метео видимость
3.04
Явления погоды
BR
Условия полета
IFR

Авиационная погода в Бресте

Регион: 
Погода METAR: 
UMBB 060800Z 08003MPS 2800 -SHSN BR OVC004CB M01/M02 Q1010 NOSIG RMK QBB140
Время наблюдения
2021-12-06T08:00:00Z
Температура C
-1.0
Точка росы
-2.0
Направление ветра
80
Скорость ветра (узлы)
6
Метео видимость
1.74
Явления погоды
-SHSN BR
Условия полета
LIFR
Аэропорт подробнее: